Aérodrome :
LOGIN :

S'inscrire | Disclaimer

   EN    FR    IT 

 










Légende :    VFR   VFR Marginal   IFR   IFR Intensif   IFR Très Intensif
Visi : 
Plafond : 
>= 8 km
>= 3000ft
5 à 8 km
1000 à 3000 ft
1500m à 5 km
500 à 1000 ft
800 à 1500m
200 à 500 ft
< 800m
< 200 ft
Symboles :   Orages  Brouillard  Fortes neiges  Fortes précipitations  Vent > 20 kt
SIGMETs :   Divers  Orages  Givrage  Turbulence  Onde Orograph.  Cendres Volcan.







- Altitude de l'aérodrome : 598 ft
- Code IATA : BQH
- Voir les cartes d'approche


EGKB - Biggin Hill

DERNIER METAR :
  • 281020Z 34006KT 300V010 9999 BKN009 16/14 Q0997

METARs EXPIRÉS :
  • 280950Z 33007KT 290V350 9999 BKN010 15/14 Q0997
  • 280920Z 33007KT 290V360 9999 BKN007 BKN015 16/14 Q0997
  • 280850Z 35008KT 320V020 7000 SCT006 BKN015 15/14 Q0997
  • 280820Z 35007KT 330V030 3500 BR FEW005 BKN015 15/14 Q0997
  • 280750Z 34007KT 2000 BR BKN006 15/14 Q0997

TAF TAF EGKB
Valide du 28 à 09h jusqu'au 28 à 18h UTC


280802Z 2809/2818 32004KT 2000 -RA BR BKN004
BECMG 2809/2811 9999 NSW BKN010
BECMG 2811/2814 BKN020
PROB30
TEMPO 2811/2818 8000 -SHRA
Pas de NOTAMs connus pour ce terrain.
1 SIGMET publié pour la FIR London (EGTT) :
 
Orages noyés dans la masse
EGTT SIGMET 02 VALID 280805/281100 EGRR
EGTT LONDON FIR EMBD TS FCST WI N5234 E00252 - N5306 E00020 - N5408 E00111 - N5409 E00414 - N5234 E00252 TOP FL370 MOV NNW 25KT NC=



MET'MAP, la Météo Aéronautique d'un coup d'oeil ! - Copyright ORBIFLY Décembre 2007 - Disclaimer

ORBIFLY MET'MAP TEAM :

Programmation & Développement : Alexandra Zaïnal
Conception & Développement : Baudouin d'Aumeries
Co-Programmation & Développement : Marc-Olivier Méhu
Soutien technique & logistique : Manuel Goepfert

Contact : metmap@orbifly.com




SOURCES & CREDITS :

   NOAA